Potash Point, Vermont
Current Conditions -  °F | °C
As of 5:55 PM on Tuesday 21 Oct 2014 (Local Time) from K6B0 Reporting Station
Drizzle Drizzle  
Wind Chill: 49°   Ceiling: 500
Heat Index: 49°   Visibility: 7mi
Dew Point: 49°   Wind: 3mph
Humidity: 100%   Direction: 350°N
Pressure: 29.99"   Gusts: NA
Location:  44.0804°N, 73.3324°W
Report Text: K6B0 212155Z AUTO 35003KT 7SM -DZ OVC005 10/10 A2999 RMK AO2 P0001 T00950095
Loading
Personal Weather Stations






























Interactive Weather Map New forecast layout! Learn more

10-Day Weather Forecast

Advertisements
Track Severe Weather on mobile